sensor_id;sensor_type;location;lat;lon;timestamp;pressure;altitude;pressure_sealevel;temperature;humidity
70015;BME280;57358;51.094;6.760;2023-01-26T00:02:17;102039.97;;;-2.51;100.00
70015;BME280;57358;51.094;6.760;2023-01-26T00:04:43;101993.31;;;-2.70;100.00
70015;BME280;57358;51.094;6.760;2023-01-26T00:07:10;102028.66;;;-2.59;100.00
70015;BME280;57358;51.094;6.760;2023-01-26T00:09:36;102068.59;;;-2.37;100.00
70015;BME280;57358;51.094;6.760;2023-01-26T00:12:03;102078.34;;;-2.23;100.00
70015;BME280;57358;51.094;6.760;2023-01-26T00:14:29;102108.47;;;-2.17;100.00
70015;BME280;57358;51.094;6.760;2023-01-26T00:17:19;102036.16;;;-2.31;100.00
70015;BME280;57358;51.094;6.760;2023-01-26T00:19:56;102020.41;;;-2.46;100.00
70015;BME280;57358;51.094;6.760;2023-01-26T00:22:24;101959.81;;;-2.74;100.00
70015;BME280;57358;51.094;6.760;2023-01-26T00:24:51;102045.81;;;-2.22;100.00
70015;BME280;57358;51.094;6.760;2023-01-26T00:27:18;101807.00;;;-3.68;100.00
70015;BME280;57358;51.094;6.760;2023-01-26T00:29:44;101922.34;;;-3.01;100.00
70015;BME280;57358;51.094;6.760;2023-01-26T00:32:10;102056.00;;;-2.25;100.00
70015;BME280;57358;51.094;6.760;2023-01-26T00:34:37;102000.56;;;-2.52;100.00
70015;BME280;57358;51.094;6.760;2023-01-26T00:37:03;102011.97;;;-2.41;100.00
70015;BME280;57358;51.094;6.760;2023-01-26T00:39:30;101940.94;;;-2.76;100.00
70015;BME280;57358;51.094;6.760;2023-01-26T00:41:56;102034.66;;;-2.21;100.00
70015;BME280;57358;51.094;6.760;2023-01-26T00:44:31;101987.72;;;-2.52;100.00
70015;BME280;57358;51.094;6.760;2023-01-26T00:46:58;101929.66;;;-2.82;100.00
70015;BME280;57358;51.094;6.760;2023-01-26T00:49:24;101751.16;;;-3.79;100.00
70015;BME280;57358;51.094;6.760;2023-01-26T00:51:50;101922.09;;;-2.75;100.00
70015;BME280;57358;51.094;6.760;2023-01-26T00:54:17;101969.09;;;-2.42;100.00
70015;BME280;57358;51.094;6.760;2023-01-26T00:56:43;101987.16;;;-2.38;100.00
70015;BME280;57358;51.094;6.760;2023-01-26T00:59:10;101796.44;;;-3.44;100.00
70015;BME280;57358;51.094;6.760;2023-01-26T01:01:36;101984.59;;;-2.38;100.00
70015;BME280;57358;51.094;6.760;2023-01-26T01:04:03;102022.06;;;-2.10;100.00
70015;BME280;57358;51.094;6.760;2023-01-26T01:06:29;101896.03;;;-2.92;100.00
70015;BME280;57358;51.094;6.760;2023-01-26T01:08:56;102011.84;;;-2.06;100.00
70015;BME280;57358;51.094;6.760;2023-01-26T01:11:23;101960.81;;;-2.28;100.00
70015;BME280;57358;51.094;6.760;2023-01-26T01:13:49;101870.88;;;-2.68;100.00
70015;BME280;57358;51.094;6.760;2023-01-26T01:16:16;102000.88;;;-1.97;100.00
70015;BME280;57358;51.094;6.760;2023-01-26T01:18:43;102000.06;;;-1.96;100.00
70015;BME280;57358;51.094;6.760;2023-01-26T01:21:12;101967.28;;;-2.06;100.00
70015;BME280;57358;51.094;6.760;2023-01-26T01:23:39;101984.78;;;-1.88;100.00
70015;BME280;57358;51.094;6.760;2023-01-26T01:26:07;101716.44;;;-3.64;100.00
70015;BME280;57358;51.094;6.760;2023-01-26T01:28:34;101985.69;;;-1.85;100.00
70015;BME280;57358;51.094;6.760;2023-01-26T01:31:05;101986.56;;;-1.84;100.00
70015;BME280;57358;51.094;6.760;2023-01-26T01:33:32;101859.09;;;-2.58;100.00
70015;BME280;57358;51.094;6.760;2023-01-26T01:36:01;101935.31;;;-2.17;100.00
70015;BME280;57358;51.094;6.760;2023-01-26T01:38:28;101915.56;;;-2.20;100.00
70015;BME280;57358;51.094;6.760;2023-01-26T01:40:55;101855.59;;;-2.62;100.00
70015;BME280;57358;51.094;6.760;2023-01-26T01:43:22;101965.09;;;-1.86;100.00
70015;BME280;57358;51.094;6.760;2023-01-26T01:45:49;101944.19;;;-2.02;100.00
70015;BME280;57358;51.094;6.760;2023-01-26T01:48:21;101978.16;;;-1.75;100.00
70015;BME280;57358;51.094;6.760;2023-01-26T01:50:56;101979.75;;;-1.81;100.00
70015;BME280;57358;51.094;6.760;2023-01-26T01:53:27;101904.25;;;-2.27;100.00
70015;BME280;57358;51.094;6.760;2023-01-26T01:56:02;101981.63;;;-1.73;100.00
70015;BME280;57358;51.094;6.760;2023-01-26T01:58:32;101802.25;;;-2.73;100.00
70015;BME280;57358;51.094;6.760;2023-01-26T02:01:01;101966.03;;;-1.81;100.00
70015;BME280;57358;51.094;6.760;2023-01-26T02:03:28;101902.59;;;-2.25;100.00
70015;BME280;57358;51.094;6.760;2023-01-26T02:05:57;101982.38;;;-1.79;100.00
70015;BME280;57358;51.094;6.760;2023-01-26T02:08:30;101921.53;;;-2.21;100.00
70015;BME280;57358;51.094;6.760;2023-01-26T02:10:59;101890.25;;;-2.41;100.00
70015;BME280;57358;51.094;6.760;2023-01-26T02:13:32;101863.50;;;-2.51;100.00
70015;BME280;57358;51.094;6.760;2023-01-26T02:15:59;101900.00;;;-2.26;100.00
70015;BME280;57358;51.094;6.760;2023-01-26T02:18:26;101950.28;;;-1.98;100.00
70015;BME280;57358;51.094;6.760;2023-01-26T02:20:59;101893.44;;;-2.12;100.00
70015;BME280;57358;51.094;6.760;2023-01-26T02:26:19;101778.28;;;-2.72;100.00
70015;BME280;57358;51.094;6.760;2023-01-26T02:28:46;101968.13;;;-1.62;100.00
70015;BME280;57358;51.094;6.760;2023-01-26T02:31:13;101938.81;;;-1.70;100.00
70015;BME280;57358;51.094;6.760;2023-01-26T02:33:41;101903.13;;;-1.97;100.00
70015;BME280;57358;51.094;6.760;2023-01-26T02:36:17;101832.00;;;-2.42;100.00
70015;BME280;57358;51.094;6.760;2023-01-26T02:41:33;101955.94;;;-1.72;100.00
70015;BME280;57358;51.094;6.760;2023-01-26T02:44:18;101952.28;;;-1.83;100.00
70015;BME280;57358;51.094;6.760;2023-01-26T02:46:45;101930.72;;;-1.90;100.00
70015;BME280;57358;51.094;6.760;2023-01-26T02:49:12;101939.13;;;-1.97;100.00
70015;BME280;57358;51.094;6.760;2023-01-26T02:51:57;101960.09;;;-1.77;100.00
70015;BME280;57358;51.094;6.760;2023-01-26T02:54:23;101882.91;;;-2.24;100.00
70015;BME280;57358;51.094;6.760;2023-01-26T02:57:08;101899.47;;;-2.10;100.00
70015;BME280;57358;51.094;6.760;2023-01-26T02:59:35;101829.81;;;-2.65;100.00
70015;BME280;57358;51.094;6.760;2023-01-26T03:02:01;101849.09;;;-2.43;100.00
70015;BME280;57358;51.094;6.760;2023-01-26T03:04:28;101903.75;;;-2.09;100.00
70015;BME280;57358;51.094;6.760;2023-01-26T03:06:54;101902.84;;;-2.12;100.00
70015;BME280;57358;51.094;6.760;2023-01-26T03:09:21;101798.78;;;-2.75;100.00
70015;BME280;57358;51.094;6.760;2023-01-26T03:11:48;101947.19;;;-1.78;100.00
70015;BME280;57358;51.094;6.760;2023-01-26T03:14:14;101850.69;;;-2.49;100.00
70015;BME280;57358;51.094;6.760;2023-01-26T03:16:41;101860.53;;;-2.27;100.00
70015;BME280;57358;51.094;6.760;2023-01-26T03:19:11;101938.72;;;-1.74;100.00
70015;BME280;57358;51.094;6.760;2023-01-26T03:21:57;101925.91;;;-1.71;100.00
70015;BME280;57358;51.094;6.760;2023-01-26T03:24:42;101919.97;;;-1.67;100.00
70015;BME280;57358;51.094;6.760;2023-01-26T03:27:32;101911.44;;;-1.66;100.00
70015;BME280;57358;51.094;6.760;2023-01-26T03:29:59;101797.56;;;-2.49;100.00
70015;BME280;57358;51.094;6.760;2023-01-26T03:32:25;101920.03;;;-1.63;100.00
70015;BME280;57358;51.094;6.760;2023-01-26T03:34:52;101688.00;;;-2.92;100.00
70015;BME280;57358;51.094;6.760;2023-01-26T03:37:18;101833.31;;;-2.17;100.00
70015;BME280;57358;51.094;6.760;2023-01-26T03:39:49;101725.94;;;-2.77;100.00
70015;BME280;57358;51.094;6.760;2023-01-26T03:42:36;101907.06;;;-1.69;100.00
70015;BME280;57358;51.094;6.760;2023-01-26T03:45:21;101909.59;;;-1.72;100.00
70015;BME280;57358;51.094;6.760;2023-01-26T03:48:10;101911.19;;;-1.78;100.00
70015;BME280;57358;51.094;6.760;2023-01-26T03:50:56;101777.63;;;-2.62;100.00
70015;BME280;57358;51.094;6.760;2023-01-26T03:53:42;101828.84;;;-2.27;100.00
70015;BME280;57358;51.094;6.760;2023-01-26T03:56:28;101785.34;;;-2.62;100.00
70015;BME280;57358;51.094;6.760;2023-01-26T03:59:02;101893.09;;;-1.83;100.00
70015;BME280;57358;51.094;6.760;2023-01-26T04:01:37;101893.16;;;-1.80;100.00
70015;BME280;57358;51.094;6.760;2023-01-26T04:04:04;101875.63;;;-2.01;100.00
70015;BME280;57358;51.094;6.760;2023-01-26T04:06:50;101645.53;;;-3.21;100.00
70015;BME280;57358;51.094;6.760;2023-01-26T04:09:36;101888.22;;;-1.68;100.00
70015;BME280;57358;51.094;6.760;2023-01-26T04:12:05;101844.66;;;-2.06;100.00
70015;BME280;57358;51.094;6.760;2023-01-26T04:14:31;101791.09;;;-2.30;100.00
70015;BME280;57358;51.094;6.760;2023-01-26T04:17:17;101829.06;;;-2.15;100.00
70015;BME280;57358;51.094;6.760;2023-01-26T04:20:06;101744.81;;;-2.75;100.00
70015;BME280;57358;51.094;6.760;2023-01-26T04:22:51;101859.16;;;-2.09;100.00
70015;BME280;57358;51.094;6.760;2023-01-26T04:25:19;101890.56;;;-1.82;100.00
70015;BME280;57358;51.094;6.760;2023-01-26T04:27:46;101833.16;;;-2.26;100.00
70015;BME280;57358;51.094;6.760;2023-01-26T04:30:14;101762.91;;;-2.69;100.00
70015;BME280;57358;51.094;6.760;2023-01-26T04:32:41;101907.47;;;-1.93;100.00
70015;BME280;57358;51.094;6.760;2023-01-26T04:35:08;101805.69;;;-2.71;100.00
70015;BME280;57358;51.094;6.760;2023-01-26T04:37:35;101891.25;;;-1.90;100.00
70015;BME280;57358;51.094;6.760;2023-01-26T04:40:01;101887.09;;;-1.84;100.00
70015;BME280;57358;51.094;6.760;2023-01-26T04:42:29;101796.13;;;-2.36;100.00
70015;BME280;57358;51.094;6.760;2023-01-26T04:44:55;101837.41;;;-2.28;100.00
70015;BME280;57358;51.094;6.760;2023-01-26T04:47:22;101880.75;;;-2.01;100.00
70015;BME280;57358;51.094;6.760;2023-01-26T04:49:48;101863.16;;;-2.25;100.00
70015;BME280;57358;51.094;6.760;2023-01-26T04:52:15;101876.50;;;-1.99;100.00
70015;BME280;57358;51.094;6.760;2023-01-26T04:54:41;101796.56;;;-2.57;100.00
70015;BME280;57358;51.094;6.760;2023-01-26T04:57:10;101854.00;;;-2.12;100.00
70015;BME280;57358;51.094;6.760;2023-01-26T04:59:37;101852.25;;;-2.13;100.00
70015;BME280;57358;51.094;6.760;2023-01-26T05:02:03;101782.00;;;-2.58;100.00
70015;BME280;57358;51.094;6.760;2023-01-26T05:04:30;101719.88;;;-2.83;100.00
70015;BME280;57358;51.094;6.760;2023-01-26T05:06:56;101795.25;;;-2.36;100.00
70015;BME280;57358;51.094;6.760;2023-01-26T05:09:23;101557.22;;;-3.73;100.00
70015;BME280;57358;51.094;6.760;2023-01-26T05:11:49;101859.44;;;-1.95;100.00
70015;BME280;57358;51.094;6.760;2023-01-26T05:14:16;101769.28;;;-2.50;100.00
70015;BME280;57358;51.094;6.760;2023-01-26T05:16:42;101609.16;;;-3.42;100.00
70015;BME280;57358;51.094;6.760;2023-01-26T05:19:09;101841.19;;;-2.08;100.00
70015;BME280;57358;51.094;6.760;2023-01-26T05:21:35;101790.88;;;-2.42;100.00
70015;BME280;57358;51.094;6.760;2023-01-26T05:24:01;101831.81;;;-2.06;100.00
70015;BME280;57358;51.094;6.760;2023-01-26T05:26:28;101778.16;;;-2.33;100.00
70015;BME280;57358;51.094;6.760;2023-01-26T05:28:54;101860.31;;;-1.93;100.00
70015;BME280;57358;51.094;6.760;2023-01-26T05:31:21;101880.41;;;-1.74;100.00
70015;BME280;57358;51.094;6.760;2023-01-26T05:33:47;101883.03;;;-1.69;100.00
70015;BME280;57358;51.094;6.760;2023-01-26T05:36:14;101886.41;;;-1.73;100.00
70015;BME280;57358;51.094;6.760;2023-01-26T05:38:40;101708.09;;;-2.70;100.00
70015;BME280;57358;51.094;6.760;2023-01-26T05:41:06;101777.13;;;-2.43;100.00
70015;BME280;57358;51.094;6.760;2023-01-26T05:43:33;101650.97;;;-3.04;100.00
70015;BME280;57358;51.094;6.760;2023-01-26T05:46:00;101668.19;;;-2.98;100.00
70015;BME280;57358;51.094;6.760;2023-01-26T05:48:26;101834.09;;;-2.21;100.00
70015;BME280;57358;51.094;6.760;2023-01-26T05:50:57;101819.28;;;-2.34;100.00
70015;BME280;57358;51.094;6.760;2023-01-26T05:53:23;101741.41;;;-2.76;100.00
70015;BME280;57358;51.094;6.760;2023-01-26T05:55:50;101902.53;;;-1.84;100.00
70015;BME280;57358;51.094;6.760;2023-01-26T05:58:16;101790.53;;;-2.59;100.00
70015;BME280;57358;51.094;6.760;2023-01-26T06:00:43;101869.53;;;-2.06;100.00
70015;BME280;57358;51.094;6.760;2023-01-26T06:03:09;101777.66;;;-2.61;100.00
70015;BME280;57358;51.094;6.760;2023-01-26T06:05:35;101846.03;;;-2.25;100.00
70015;BME280;57358;51.094;6.760;2023-01-26T06:08:04;101835.63;;;-2.32;100.00
70015;BME280;57358;51.094;6.760;2023-01-26T06:10:30;101866.84;;;-2.11;100.00
70015;BME280;57358;51.094;6.760;2023-01-26T06:12:57;101859.91;;;-2.15;100.00
70015;BME280;57358;51.094;6.760;2023-01-26T06:15:24;101771.56;;;-2.66;100.00
70015;BME280;57358;51.094;6.760;2023-01-26T06:17:50;101902.38;;;-1.91;100.00
70015;BME280;57358;51.094;6.760;2023-01-26T06:20:17;101833.81;;;-2.36;100.00
70015;BME280;57358;51.094;6.760;2023-01-26T06:22:43;101916.09;;;-1.92;100.00
70015;BME280;57358;51.094;6.760;2023-01-26T06:25:09;101799.09;;;-2.60;100.00
70015;BME280;57358;51.094;6.760;2023-01-26T06:27:36;101911.03;;;-1.88;100.00
70015;BME280;57358;51.094;6.760;2023-01-26T06:30:08;101920.53;;;-1.84;100.00
70015;BME280;57358;51.094;6.760;2023-01-26T06:32:35;101736.06;;;-2.85;100.00
70015;BME280;57358;51.094;6.760;2023-01-26T06:35:03;101912.94;;;-1.77;100.00
70015;BME280;57358;51.094;6.760;2023-01-26T06:37:32;101917.13;;;-1.81;100.00
70015;BME280;57358;51.094;6.760;2023-01-26T06:39:58;101591.31;;;-3.77;100.00
70015;BME280;57358;51.094;6.760;2023-01-26T06:42:25;101871.22;;;-2.08;100.00
70015;BME280;57358;51.094;6.760;2023-01-26T06:44:51;101837.25;;;-2.36;100.00
70015;BME280;57358;51.094;6.760;2023-01-26T06:47:17;101817.22;;;-2.52;100.00
70015;BME280;57358;51.094;6.760;2023-01-26T06:49:46;101846.69;;;-2.36;100.00
70015;BME280;57358;51.094;6.760;2023-01-26T06:52:24;101911.03;;;-1.88;100.00
70015;BME280;57358;51.094;6.760;2023-01-26T06:54:52;101832.09;;;-2.36;100.00
70015;BME280;57358;51.094;6.760;2023-01-26T06:57:19;101884.16;;;-2.04;100.00
70015;BME280;57358;51.094;6.760;2023-01-26T06:59:45;101773.94;;;-2.75;100.00
70015;BME280;57358;51.094;6.760;2023-01-26T07:02:19;101800.88;;;-2.56;100.00
70015;BME280;57358;51.094;6.760;2023-01-26T07:04:47;101924.06;;;-1.77;100.00
70015;BME280;57358;51.094;6.760;2023-01-26T07:07:14;101926.63;;;-1.80;100.00
70015;BME280;57358;51.094;6.760;2023-01-26T07:09:40;101808.81;;;-2.44;100.00
70015;BME280;57358;51.094;6.760;2023-01-26T07:12:07;101925.88;;;-1.74;100.00
70015;BME280;57358;51.094;6.760;2023-01-26T07:14:33;101824.44;;;-2.34;100.00
70015;BME280;57358;51.094;6.760;2023-01-26T07:17:00;101909.00;;;-2.03;100.00
70015;BME280;57358;51.094;6.760;2023-01-26T07:19:27;101914.16;;;-2.03;100.00
70015;BME280;57358;51.094;6.760;2023-01-26T07:21:55;101909.19;;;-1.93;100.00
70015;BME280;57358;51.094;6.760;2023-01-26T07:24:22;101864.00;;;-2.26;100.00
70015;BME280;57358;51.094;6.760;2023-01-26T07:26:48;101837.22;;;-2.37;100.00
70015;BME280;57358;51.094;6.760;2023-01-26T07:29:17;101927.50;;;-1.78;100.00
70015;BME280;57358;51.094;6.760;2023-01-26T07:31:43;101804.50;;;-2.45;100.00
70015;BME280;57358;51.094;6.760;2023-01-26T07:34:10;101928.41;;;-1.76;100.00
70015;BME280;57358;51.094;6.760;2023-01-26T07:36:37;101925.97;;;-1.67;100.00
70015;BME280;57358;51.094;6.760;2023-01-26T07:39:04;101926.94;;;-1.62;100.00
70015;BME280;57358;51.094;6.760;2023-01-26T07:41:33;101874.09;;;-1.91;100.00
70015;BME280;57358;51.094;6.760;2023-01-26T07:44:00;101927.84;;;-1.59;100.00
70015;BME280;57358;51.094;6.760;2023-01-26T07:46:27;101890.38;;;-1.92;100.00
70015;BME280;57358;51.094;6.760;2023-01-26T07:48:53;101914.69;;;-1.75;100.00
70015;BME280;57358;51.094;6.760;2023-01-26T07:51:20;101932.25;;;-1.52;100.00
70015;BME280;57358;51.094;6.760;2023-01-26T07:53:46;101926.41;;;-1.44;100.00
70015;BME280;57358;51.094;6.760;2023-01-26T07:56:15;101878.84;;;-1.63;100.00
70015;BME280;57358;51.094;6.760;2023-01-26T07:58:48;101828.53;;;-1.97;100.00
70015;BME280;57358;51.094;6.760;2023-01-26T08:01:14;101932.69;;;-1.26;100.00
70015;BME280;57358;51.094;6.760;2023-01-26T08:03:41;101938.78;;;-1.21;100.00
70015;BME280;57358;51.094;6.760;2023-01-26T08:06:08;101699.28;;;-2.84;100.00
70015;BME280;57358;51.094;6.760;2023-01-26T08:08:38;101941.69;;;-1.51;100.00
70015;BME280;57358;51.094;6.760;2023-01-26T08:11:06;101939.31;;;-1.41;100.00
70015;BME280;57358;51.094;6.760;2023-01-26T08:13:33;101896.97;;;-1.58;100.00
70015;BME280;57358;51.094;6.760;2023-01-26T08:16:06;101944.56;;;-1.34;100.00
70015;BME280;57358;51.094;6.760;2023-01-26T08:18:39;101938.38;;;-1.46;100.00
70015;BME280;57358;51.094;6.760;2023-01-26T08:21:05;101941.22;;;-1.29;100.00
70015;BME280;57358;51.094;6.760;2023-01-26T08:23:32;101854.56;;;-1.80;100.00
70015;BME280;57358;51.094;6.760;2023-01-26T08:26:03;101853.72;;;-1.79;100.00
70015;BME280;57358;51.094;6.760;2023-01-26T08:28:32;101919.81;;;-1.25;100.00
70015;BME280;57358;51.094;6.760;2023-01-26T08:31:13;101937.22;;;-1.11;100.00
70015;BME280;57358;51.094;6.760;2023-01-26T08:33:41;101956.97;;;-1.12;100.00
70015;BME280;57358;51.094;6.760;2023-01-26T08:36:10;101952.66;;;-1.13;100.00
70015;BME280;57358;51.094;6.760;2023-01-26T08:38:37;101905.59;;;-1.56;100.00
70015;BME280;57358;51.094;6.760;2023-01-26T08:41:04;101957.75;;;-1.14;100.00
70015;BME280;57358;51.094;6.760;2023-01-26T08:43:30;101949.25;;;-1.10;100.00
70015;BME280;57358;51.094;6.760;2023-01-26T08:45:58;101955.19;;;-1.14;100.00
70015;BME280;57358;51.094;6.760;2023-01-26T08:48:24;101946.88;;;-0.98;100.00
70015;BME280;57358;51.094;6.760;2023-01-26T08:50:55;101946.13;;;-0.91;100.00
70015;BME280;57358;51.094;6.760;2023-01-26T08:53:22;101895.75;;;-1.27;100.00
70015;BME280;57358;51.094;6.760;2023-01-26T08:55:49;101936.59;;;-0.96;100.00
70015;BME280;57358;51.094;6.760;2023-01-26T08:58:15;101959.06;;;-0.88;100.00
70015;BME280;57358;51.094;6.760;2023-01-26T09:00:42;101903.78;;;-1.08;100.00
70015;BME280;57358;51.094;6.760;2023-01-26T09:03:08;101946.34;;;-0.75;100.00
70015;BME280;57358;51.094;6.760;2023-01-26T09:05:37;101833.38;;;-1.64;100.00
70015;BME280;57358;51.094;6.760;2023-01-26T09:08:05;101953.63;;;-1.05;100.00
70015;BME280;57358;51.094;6.760;2023-01-26T09:10:32;101814.38;;;-1.72;100.00
70015;BME280;57358;51.094;6.760;2023-01-26T09:12:59;101926.28;;;-0.98;100.00
70015;BME280;57358;51.094;6.760;2023-01-26T09:15:26;101959.38;;;-0.65;100.00
70015;BME280;57358;51.094;6.760;2023-01-26T09:17:53;101948.94;;;-0.75;100.00
70015;BME280;57358;51.094;6.760;2023-01-26T09:20:19;101951.41;;;-0.83;100.00
70015;BME280;57358;51.094;6.760;2023-01-26T09:22:46;101843.94;;;-1.48;100.00
70015;BME280;57358;51.094;6.760;2023-01-26T09:25:13;101887.31;;;-1.18;100.00
70015;BME280;57358;51.094;6.760;2023-01-26T09:27:39;101951.63;;;-0.66;100.00
70015;BME280;57358;51.094;6.760;2023-01-26T09:30:07;101954.25;;;-0.63;100.00
70015;BME280;57358;51.094;6.760;2023-01-26T09:32:33;101953.06;;;-0.87;100.00
70015;BME280;57358;51.094;6.760;2023-01-26T09:35:00;101894.06;;;-1.25;100.00
70015;BME280;57358;51.094;6.760;2023-01-26T09:37:26;101964.16;;;-0.91;100.00
70015;BME280;57358;51.094;6.760;2023-01-26T09:39:53;101959.81;;;-0.95;100.00
70015;BME280;57358;51.094;6.760;2023-01-26T09:53:40;101954.41;;;-0.52;100.00
70015;BME280;57358;51.094;6.760;2023-01-26T09:56:14;101945.78;;;-0.54;100.00
70015;BME280;57358;51.094;6.760;2023-01-26T09:58:45;101955.47;;;-0.39;100.00
70015;BME280;57358;51.094;6.760;2023-01-26T10:01:25;101891.44;;;-0.71;100.00
70015;BME280;57358;51.094;6.760;2023-01-26T10:04:08;101893.22;;;-0.66;100.00
70015;BME280;57358;51.094;6.760;2023-01-26T10:06:37;101543.47;;;-2.82;100.00
70015;BME280;57358;51.094;6.760;2023-01-26T10:09:13;101916.63;;;-0.49;100.00
70015;BME280;57358;51.094;6.760;2023-01-26T10:11:57;101936.72;;;-0.25;100.00
70015;BME280;57358;51.094;6.760;2023-01-26T10:14:37;101856.81;;;-0.89;100.00
70015;BME280;57358;51.094;6.760;2023-01-26T10:17:12;101851.66;;;-0.89;100.00
70015;BME280;57358;51.094;6.760;2023-01-26T10:20:42;101934.72;;;-0.47;100.00
70015;BME280;57358;51.094;6.760;2023-01-26T10:22:48;101926.22;;;-0.38;100.00
70015;BME280;57358;51.094;6.760;2023-01-26T10:25:36;101887.53;;;-0.40;100.00
70015;BME280;57358;51.094;6.760;2023-01-26T10:28:14;101960.97;;;-0.12;100.00
70015;BME280;57358;51.094;6.760;2023-01-26T10:30:42;101856.28;;;-0.65;100.00
70015;BME280;57358;51.094;6.760;2023-01-26T10:33:24;101925.72;;;-0.11;100.00
70015;BME280;57358;51.094;6.760;2023-01-26T10:35:52;101911.53;;;-0.44;100.00
70015;BME280;57358;51.094;6.760;2023-01-26T10:43:40;101849.09;;;-0.89;100.00
70015;BME280;57358;51.094;6.760;2023-01-26T10:49:08;101763.66;;;-1.19;100.00
70015;BME280;57358;51.094;6.760;2023-01-26T10:51:42;101922.25;;;-0.13;100.00
70015;BME280;57358;51.094;6.760;2023-01-26T10:54:22;101878.75;;;-0.56;100.00
70015;BME280;57358;51.094;6.760;2023-01-26T10:57:02;101914.47;;;-0.15;100.00
70015;BME280;57358;51.094;6.760;2023-01-26T10:59:43;101879.72;;;-0.48;100.00
70015;BME280;57358;51.094;6.760;2023-01-26T11:07:31;101913.31;;;-0.42;100.00
70015;BME280;57358;51.094;6.760;2023-01-26T11:13:10;101887.66;;;-0.29;100.00
70015;BME280;57358;51.094;6.760;2023-01-26T11:15:40;101901.63;;;-0.10;100.00
70015;BME280;57358;51.094;6.760;2023-01-26T11:35:08;101834.88;;;-0.59;100.00
70015;BME280;57358;51.094;6.760;2023-01-26T11:37:38;101825.16;;;-0.80;100.00
70015;BME280;57358;51.094;6.760;2023-01-26T11:46:22;101898.09;;;-0.18;100.00
70015;BME280;57358;51.094;6.760;2023-01-26T11:58:10;101900.75;;;-0.11;100.00
70015;BME280;57358;51.094;6.760;2023-01-26T12:00:55;101892.06;;;-0.21;100.00
70015;BME280;57358;51.094;6.760;2023-01-26T12:03:40;101886.88;;;-0.21;100.00
70015;BME280;57358;51.094;6.760;2023-01-26T12:06:15;101693.13;;;-1.31;100.00
70015;BME280;57358;51.094;6.760;2023-01-26T12:08:47;101825.56;;;-0.48;100.00
70015;BME280;57358;51.094;6.760;2023-01-26T12:11:32;101797.06;;;-0.57;100.00
70015;BME280;57358;51.094;6.760;2023-01-26T12:22:36;101849.25;;;-0.03;100.00
70015;BME280;57358;51.094;6.760;2023-01-26T12:31:01;101851.13;;;0.15;100.00
70015;BME280;57358;51.094;6.760;2023-01-26T12:33:32;101799.28;;;-0.08;100.00
70015;BME280;57358;51.094;6.760;2023-01-26T12:46:51;101787.47;;;0.12;100.00
70015;BME280;57358;51.094;6.760;2023-01-26T12:49:27;101813.28;;;0.15;100.00
70015;BME280;57358;51.094;6.760;2023-01-26T12:52:04;101816.94;;;0.41;100.00
70015;BME280;57358;51.094;6.760;2023-01-26T12:54:40;101840.13;;;0.36;100.00
70015;BME280;57358;51.094;6.760;2023-01-26T12:57:14;101789.13;;;0.09;100.00
70015;BME280;57358;51.094;6.760;2023-01-26T12:59:42;101713.94;;;-0.33;100.00
70015;BME280;57358;51.094;6.760;2023-01-26T13:04:49;101817.72;;;0.32;100.00
70015;BME280;57358;51.094;6.760;2023-01-26T13:07:27;101810.72;;;0.20;100.00
70015;BME280;57358;51.094;6.760;2023-01-26T13:10:22;101795.28;;;0.25;100.00
70015;BME280;57358;51.094;6.760;2023-01-26T13:12:53;101829.84;;;0.39;100.00
70015;BME280;57358;51.094;6.760;2023-01-26T13:15:22;101823.81;;;0.42;100.00
70015;BME280;57358;51.094;6.760;2023-01-26T13:17:51;101826.50;;;0.55;100.00
70015;BME280;57358;51.094;6.760;2023-01-26T13:20:41;101821.34;;;0.52;100.00
70015;BME280;57358;51.094;6.760;2023-01-26T13:28:40;101784.22;;;0.39;100.00
70015;BME280;57358;51.094;6.760;2023-01-26T13:31:07;101822.28;;;0.65;100.00
70015;BME280;57358;51.094;6.760;2023-01-26T13:33:34;101823.97;;;0.63;100.00
70015;BME280;57358;51.094;6.760;2023-01-26T13:36:03;101750.56;;;0.27;100.00
70015;BME280;57358;51.094;6.760;2023-01-26T13:38:42;101810.28;;;0.70;100.00
70015;BME280;57358;51.094;6.760;2023-01-26T13:41:16;101818.91;;;0.75;100.00
70015;BME280;57358;51.094;6.760;2023-01-26T13:43:49;101825.81;;;0.79;100.00
70015;BME280;57358;51.094;6.760;2023-01-26T13:48:53;101819.78;;;0.77;100.00
70015;BME280;57358;51.094;6.760;2023-01-26T13:53:59;101717.78;;;0.20;100.00
70015;BME280;57358;51.094;6.760;2023-01-26T13:56:33;101819.78;;;0.77;100.00
70015;BME280;57358;51.094;6.760;2023-01-26T13:59:18;101815.47;;;0.79;100.00
70015;BME280;57358;51.094;6.760;2023-01-26T14:01:48;101853.38;;;0.82;100.00
70015;BME280;57358;51.094;6.760;2023-01-26T14:04:17;101810.28;;;0.75;100.00
70015;BME280;57358;51.094;6.760;2023-01-26T14:06:56;101753.09;;;0.21;100.00
70015;BME280;57358;51.094;6.760;2023-01-26T14:09:26;101788.66;;;0.59;100.00
70015;BME280;57358;51.094;6.760;2023-01-26T14:12:01;101754.88;;;0.30;100.00
70015;BME280;57358;51.094;6.760;2023-01-26T14:14:32;101808.44;;;0.60;100.00
70015;BME280;57358;51.094;6.760;2023-01-26T14:17:05;101802.53;;;0.70;100.00
70015;BME280;57358;51.094;6.760;2023-01-26T14:19:38;101816.34;;;0.77;100.00
70015;BME280;57358;51.094;6.760;2023-01-26T14:22:11;101833.59;;;0.81;100.00
70015;BME280;57358;51.094;6.760;2023-01-26T14:24:38;101796.44;;;0.61;100.00
70015;BME280;57358;51.094;6.760;2023-01-26T14:27:36;101822.34;;;0.74;100.00
70015;BME280;57358;51.094;6.760;2023-01-26T14:30:24;101823.25;;;0.83;100.00
70015;BME280;57358;51.094;6.760;2023-01-26T14:33:12;101831.88;;;0.86;100.00
70015;BME280;57358;51.094;6.760;2023-01-26T14:35:41;101836.16;;;0.84;100.00
70015;BME280;57358;51.094;6.760;2023-01-26T14:40:47;101827.53;;;0.82;100.00
70015;BME280;57358;51.094;6.760;2023-01-26T14:43:15;101832.72;;;0.82;100.00
70015;BME280;57358;51.094;6.760;2023-01-26T14:45:51;101743.63;;;0.22;100.00